sensor_id;sensor_type;location;lat;lon;timestamp;P1;durP1;ratioP1;P2;durP2;ratioP2
62153;SDS011;48140;45.486;9.226;2023-07-02T01:00:32;18.23;;;11.13;;
62153;SDS011;48140;45.486;9.226;2023-07-02T01:02:58;14.82;;;10.38;;
62153;SDS011;48140;45.486;9.226;2023-07-02T01:05:30;14.55;;;11.43;;
62153;SDS011;48140;45.486;9.226;2023-07-02T01:08:02;15.48;;;10.60;;
62153;SDS011;48140;45.486;9.226;2023-07-02T01:10:28;14.55;;;10.10;;
62153;SDS011;48140;45.486;9.226;2023-07-02T01:12:56;13.43;;;9.50;;
62153;SDS011;48140;45.486;9.226;2023-07-02T01:15:29;15.35;;;9.25;;
62153;SDS011;48140;45.486;9.226;2023-07-02T01:17:54;14.32;;;10.40;;
62153;SDS011;48140;45.486;9.226;2023-07-02T01:20:21;14.70;;;10.27;;
62153;SDS011;48140;45.486;9.226;2023-07-02T01:22:48;14.32;;;9.30;;
62153;SDS011;48140;45.486;9.226;2023-07-02T01:25:16;12.95;;;9.35;;
62153;SDS011;48140;45.486;9.226;2023-07-02T01:27:43;12.90;;;8.80;;
62153;SDS011;48140;45.486;9.226;2023-07-02T01:30:10;13.90;;;9.93;;
62153;SDS011;48140;45.486;9.226;2023-07-02T01:32:37;13.43;;;9.35;;
62153;SDS011;48140;45.486;9.226;2023-07-02T01:35:04;14.73;;;9.95;;
62153;SDS011;48140;45.486;9.226;2023-07-02T01:37:30;12.35;;;9.63;;
62153;SDS011;48140;45.486;9.226;2023-07-02T01:42:31;14.98;;;10.52;;
62153;SDS011;48140;45.486;9.226;2023-07-02T01:44:57;12.57;;;9.65;;
62153;SDS011;48140;45.486;9.226;2023-07-02T01:47:22;14.20;;;10.25;;
62153;SDS011;48140;45.486;9.226;2023-07-02T01:49:50;13.20;;;10.18;;
62153;SDS011;48140;45.486;9.226;2023-07-02T01:52:16;13.77;;;9.82;;
62153;SDS011;48140;45.486;9.226;2023-07-02T01:54:42;14.15;;;10.45;;
62153;SDS011;48140;45.486;9.226;2023-07-02T01:57:08;13.55;;;10.00;;
62153;SDS011;48140;45.486;9.226;2023-07-02T01:59:34;13.40;;;9.77;;
62153;SDS011;48140;45.486;9.226;2023-07-02T02:02:00;13.65;;;9.73;;
62153;SDS011;48140;45.486;9.226;2023-07-02T02:04:26;11.85;;;8.20;;
62153;SDS011;48140;45.486;9.226;2023-07-02T02:06:51;12.07;;;8.55;;
62153;SDS011;48140;45.486;9.226;2023-07-02T02:09:17;11.25;;;8.07;;
62153;SDS011;48140;45.486;9.226;2023-07-02T02:11:44;11.15;;;7.93;;
62153;SDS011;48140;45.486;9.226;2023-07-02T02:14:14;14.10;;;8.77;;
62153;SDS011;48140;45.486;9.226;2023-07-02T02:16:40;15.30;;;9.65;;
62153;SDS011;48140;45.486;9.226;2023-07-02T02:19:05;13.55;;;8.88;;
62153;SDS011;48140;45.486;9.226;2023-07-02T02:21:31;11.43;;;8.40;;
62153;SDS011;48140;45.486;9.226;2023-07-02T02:23:57;14.23;;;8.85;;
62153;SDS011;48140;45.486;9.226;2023-07-02T02:26:23;11.38;;;7.88;;
62153;SDS011;48140;45.486;9.226;2023-07-02T02:28:50;12.45;;;9.10;;
62153;SDS011;48140;45.486;9.226;2023-07-02T02:31:16;13.65;;;8.82;;
62153;SDS011;48140;45.486;9.226;2023-07-02T02:33:41;14.07;;;8.68;;
62153;SDS011;48140;45.486;9.226;2023-07-02T02:36:07;13.75;;;8.52;;
62153;SDS011;48140;45.486;9.226;2023-07-02T02:38:33;13.90;;;8.38;;
62153;SDS011;48140;45.486;9.226;2023-07-02T02:40:59;12.63;;;8.63;;
62153;SDS011;48140;45.486;9.226;2023-07-02T02:43:25;11.77;;;8.43;;
62153;SDS011;48140;45.486;9.226;2023-07-02T02:45:51;12.05;;;8.45;;
62153;SDS011;48140;45.486;9.226;2023-07-02T02:48:17;11.43;;;8.02;;
62153;SDS011;48140;45.486;9.226;2023-07-02T02:50:42;12.48;;;7.57;;
62153;SDS011;48140;45.486;9.226;2023-07-02T02:53:08;11.20;;;7.72;;
62153;SDS011;48140;45.486;9.226;2023-07-02T02:55:37;12.30;;;7.45;;
62153;SDS011;48140;45.486;9.226;2023-07-02T02:58:03;12.48;;;7.57;;
62153;SDS011;48140;45.486;9.226;2023-07-02T03:00:29;11.90;;;8.13;;
62153;SDS011;48140;45.486;9.226;2023-07-02T03:02:55;10.05;;;7.63;;
62153;SDS011;48140;45.486;9.226;2023-07-02T03:05:21;12.40;;;7.53;;
62153;SDS011;48140;45.486;9.226;2023-07-02T03:07:47;12.48;;;7.85;;
62153;SDS011;48140;45.486;9.226;2023-07-02T03:10:14;13.90;;;7.80;;
62153;SDS011;48140;45.486;9.226;2023-07-02T03:12:39;10.13;;;7.28;;
62153;SDS011;48140;45.486;9.226;2023-07-02T03:15:05;12.15;;;7.30;;
62153;SDS011;48140;45.486;9.226;2023-07-02T03:17:31;13.50;;;8.48;;
62153;SDS011;48140;45.486;9.226;2023-07-02T03:19:57;14.60;;;8.40;;
62153;SDS011;48140;45.486;9.226;2023-07-02T03:22:23;12.85;;;7.95;;
62153;SDS011;48140;45.486;9.226;2023-07-02T03:24:50;13.63;;;8.13;;
62153;SDS011;48140;45.486;9.226;2023-07-02T03:27:15;11.27;;;7.78;;
62153;SDS011;48140;45.486;9.226;2023-07-02T03:29:41;11.20;;;7.82;;
62153;SDS011;48140;45.486;9.226;2023-07-02T03:32:06;13.27;;;8.50;;
62153;SDS011;48140;45.486;9.226;2023-07-02T03:34:32;11.77;;;7.75;;
62153;SDS011;48140;45.486;9.226;2023-07-02T03:36:58;13.88;;;7.53;;
62153;SDS011;48140;45.486;9.226;2023-07-02T03:39:24;15.77;;;7.90;;
62153;SDS011;48140;45.486;9.226;2023-07-02T03:41:49;11.60;;;7.65;;
62153;SDS011;48140;45.486;9.226;2023-07-02T03:44:15;11.55;;;7.22;;
62153;SDS011;48140;45.486;9.226;2023-07-02T03:46:40;10.23;;;6.43;;
62153;SDS011;48140;45.486;9.226;2023-07-02T03:49:06;10.32;;;7.22;;
62153;SDS011;48140;45.486;9.226;2023-07-02T03:51:32;13.95;;;7.70;;
62153;SDS011;48140;45.486;9.226;2023-07-02T03:53:58;10.23;;;6.65;;
62153;SDS011;48140;45.486;9.226;2023-07-02T03:56:23;11.15;;;6.78;;
62153;SDS011;48140;45.486;9.226;2023-07-02T03:58:51;11.25;;;6.68;;
62153;SDS011;48140;45.486;9.226;2023-07-02T04:01:17;11.88;;;7.00;;
62153;SDS011;48140;45.486;9.226;2023-07-02T04:03:49;12.35;;;7.05;;
62153;SDS011;48140;45.486;9.226;2023-07-02T04:06:17;11.70;;;6.90;;
62153;SDS011;48140;45.486;9.226;2023-07-02T04:08:43;11.07;;;6.20;;
62153;SDS011;48140;45.486;9.226;2023-07-02T04:11:09;10.30;;;6.50;;
62153;SDS011;48140;45.486;9.226;2023-07-02T04:13:37;11.70;;;7.05;;
62153;SDS011;48140;45.486;9.226;2023-07-02T04:16:03;9.13;;;6.10;;
62153;SDS011;48140;45.486;9.226;2023-07-02T04:18:30;8.80;;;5.70;;
62153;SDS011;48140;45.486;9.226;2023-07-02T04:20:57;9.38;;;6.40;;
62153;SDS011;48140;45.486;9.226;2023-07-02T04:23:23;9.30;;;6.20;;
62153;SDS011;48140;45.486;9.226;2023-07-02T04:25:49;9.73;;;5.35;;
62153;SDS011;48140;45.486;9.226;2023-07-02T04:28:15;12.05;;;5.97;;
62153;SDS011;48140;45.486;9.226;2023-07-02T04:30:41;9.45;;;6.45;;
62153;SDS011;48140;45.486;9.226;2023-07-02T04:33:07;9.80;;;7.07;;
62153;SDS011;48140;45.486;9.226;2023-07-02T04:35:33;9.90;;;6.50;;
62153;SDS011;48140;45.486;9.226;2023-07-02T04:37:59;10.90;;;7.30;;
62153;SDS011;48140;45.486;9.226;2023-07-02T04:40:31;11.65;;;7.97;;
62153;SDS011;48140;45.486;9.226;2023-07-02T04:42:57;11.60;;;7.25;;
62153;SDS011;48140;45.486;9.226;2023-07-02T04:45:23;15.88;;;7.65;;
62153;SDS011;48140;45.486;9.226;2023-07-02T04:47:50;11.75;;;7.55;;
62153;SDS011;48140;45.486;9.226;2023-07-02T04:50:16;13.38;;;8.23;;
62153;SDS011;48140;45.486;9.226;2023-07-02T04:52:42;11.02;;;8.23;;
62153;SDS011;48140;45.486;9.226;2023-07-02T04:55:08;13.90;;;8.85;;
62153;SDS011;48140;45.486;9.226;2023-07-02T04:57:34;13.07;;;8.18;;
62153;SDS011;48140;45.486;9.226;2023-07-02T04:59:59;16.10;;;8.63;;
62153;SDS011;48140;45.486;9.226;2023-07-02T05:02:25;12.65;;;8.27;;
62153;SDS011;48140;45.486;9.226;2023-07-02T05:04:51;14.90;;;8.90;;
62153;SDS011;48140;45.486;9.226;2023-07-02T05:07:16;15.25;;;8.73;;
62153;SDS011;48140;45.486;9.226;2023-07-02T05:09:42;15.90;;;9.65;;
62153;SDS011;48140;45.486;9.226;2023-07-02T05:12:08;15.48;;;10.50;;
62153;SDS011;48140;45.486;9.226;2023-07-02T05:14:34;14.75;;;8.65;;
62153;SDS011;48140;45.486;9.226;2023-07-02T05:16:59;14.80;;;9.57;;
62153;SDS011;48140;45.486;9.226;2023-07-02T05:19:25;14.75;;;9.20;;
62153;SDS011;48140;45.486;9.226;2023-07-02T05:21:51;14.32;;;9.23;;
62153;SDS011;48140;45.486;9.226;2023-07-02T05:24:16;13.77;;;8.93;;
62153;SDS011;48140;45.486;9.226;2023-07-02T05:26:42;12.40;;;8.15;;
62153;SDS011;48140;45.486;9.226;2023-07-02T05:29:08;11.88;;;7.68;;
62153;SDS011;48140;45.486;9.226;2023-07-02T05:31:33;13.02;;;8.02;;
62153;SDS011;48140;45.486;9.226;2023-07-02T05:33:59;16.60;;;8.68;;
62153;SDS011;48140;45.486;9.226;2023-07-02T05:36:25;12.05;;;7.88;;
62153;SDS011;48140;45.486;9.226;2023-07-02T05:38:50;10.88;;;7.63;;
62153;SDS011;48140;45.486;9.226;2023-07-02T05:41:18;10.48;;;7.30;;
62153;SDS011;48140;45.486;9.226;2023-07-02T05:43:44;10.85;;;7.28;;
62153;SDS011;48140;45.486;9.226;2023-07-02T05:46:09;11.55;;;7.60;;
62153;SDS011;48140;45.486;9.226;2023-07-02T05:48:35;15.18;;;9.05;;
62153;SDS011;48140;45.486;9.226;2023-07-02T05:51:01;11.27;;;7.68;;
62153;SDS011;48140;45.486;9.226;2023-07-02T05:53:27;10.95;;;8.23;;
62153;SDS011;48140;45.486;9.226;2023-07-02T05:55:55;13.75;;;8.63;;
62153;SDS011;48140;45.486;9.226;2023-07-02T05:58:21;12.48;;;9.02;;
62153;SDS011;48140;45.486;9.226;2023-07-02T06:00:47;12.55;;;7.88;;
62153;SDS011;48140;45.486;9.226;2023-07-02T06:03:14;13.27;;;8.45;;
62153;SDS011;48140;45.486;9.226;2023-07-02T06:05:45;11.32;;;8.27;;
62153;SDS011;48140;45.486;9.226;2023-07-02T06:08:12;13.30;;;8.75;;
62153;SDS011;48140;45.486;9.226;2023-07-02T06:10:38;14.10;;;9.80;;
62153;SDS011;48140;45.486;9.226;2023-07-02T06:13:03;13.05;;;8.95;;
62153;SDS011;48140;45.486;9.226;2023-07-02T06:15:29;15.90;;;9.80;;
62153;SDS011;48140;45.486;9.226;2023-07-02T06:17:54;13.95;;;9.07;;
62153;SDS011;48140;45.486;9.226;2023-07-02T06:20:20;14.35;;;9.07;;
62153;SDS011;48140;45.486;9.226;2023-07-02T06:22:46;16.83;;;9.80;;
62153;SDS011;48140;45.486;9.226;2023-07-02T06:25:12;12.32;;;9.18;;
62153;SDS011;48140;45.486;9.226;2023-07-02T06:27:38;15.68;;;9.15;;
62153;SDS011;48140;45.486;9.226;2023-07-02T06:30:04;19.45;;;10.45;;
62153;SDS011;48140;45.486;9.226;2023-07-02T06:32:31;14.85;;;10.02;;
62153;SDS011;48140;45.486;9.226;2023-07-02T06:34:57;14.60;;;9.95;;
62153;SDS011;48140;45.486;9.226;2023-07-02T06:37:23;14.93;;;10.18;;
62153;SDS011;48140;45.486;9.226;2023-07-02T06:39:48;14.70;;;9.48;;
62153;SDS011;48140;45.486;9.226;2023-07-02T06:42:14;21.05;;;12.32;;
62153;SDS011;48140;45.486;9.226;2023-07-02T06:44:40;22.02;;;13.75;;
62153;SDS011;48140;45.486;9.226;2023-07-02T06:47:06;18.80;;;12.20;;
62153;SDS011;48140;45.486;9.226;2023-07-02T06:49:32;19.27;;;13.27;;
62153;SDS011;48140;45.486;9.226;2023-07-02T06:51:58;16.77;;;11.93;;
62153;SDS011;48140;45.486;9.226;2023-07-02T06:54:25;19.33;;;12.75;;
62153;SDS011;48140;45.486;9.226;2023-07-02T06:56:51;17.85;;;12.38;;
62153;SDS011;48140;45.486;9.226;2023-07-02T06:59:20;17.67;;;12.05;;
62153;SDS011;48140;45.486;9.226;2023-07-02T07:01:49;18.08;;;12.77;;
62153;SDS011;48140;45.486;9.226;2023-07-02T07:04:15;20.55;;;12.48;;
62153;SDS011;48140;45.486;9.226;2023-07-02T07:06:41;20.23;;;13.57;;
62153;SDS011;48140;45.486;9.226;2023-07-02T07:09:07;18.60;;;12.20;;
62153;SDS011;48140;45.486;9.226;2023-07-02T07:11:33;18.92;;;11.80;;
62153;SDS011;48140;45.486;9.226;2023-07-02T07:13:59;20.23;;;14.10;;
62153;SDS011;48140;45.486;9.226;2023-07-02T07:16:25;20.67;;;13.80;;
62153;SDS011;48140;45.486;9.226;2023-07-02T07:18:50;23.15;;;15.73;;
62153;SDS011;48140;45.486;9.226;2023-07-02T07:21:16;21.05;;;14.30;;
62153;SDS011;48140;45.486;9.226;2023-07-02T07:23:42;21.65;;;14.52;;
62153;SDS011;48140;45.486;9.226;2023-07-02T07:26:07;18.48;;;13.85;;
62153;SDS011;48140;45.486;9.226;2023-07-02T07:28:33;22.00;;;13.98;;
62153;SDS011;48140;45.486;9.226;2023-07-02T07:30:59;19.30;;;14.00;;
62153;SDS011;48140;45.486;9.226;2023-07-02T07:33:24;20.27;;;13.70;;
62153;SDS011;48140;45.486;9.226;2023-07-02T07:35:52;22.65;;;12.68;;
62153;SDS011;48140;45.486;9.226;2023-07-02T07:38:18;20.80;;;12.48;;
62153;SDS011;48140;45.486;9.226;2023-07-02T07:40:44;19.55;;;13.30;;
62153;SDS011;48140;45.486;9.226;2023-07-02T07:43:10;18.13;;;12.27;;
62153;SDS011;48140;45.486;9.226;2023-07-02T07:45:36;19.50;;;12.18;;
62153;SDS011;48140;45.486;9.226;2023-07-02T07:48:02;18.33;;;12.15;;
62153;SDS011;48140;45.486;9.226;2023-07-02T07:50:29;16.65;;;11.10;;
62153;SDS011;48140;45.486;9.226;2023-07-02T07:52:55;17.30;;;10.40;;
62153;SDS011;48140;45.486;9.226;2023-07-02T07:55:20;17.17;;;10.85;;
62153;SDS011;48140;45.486;9.226;2023-07-02T07:57:46;17.00;;;9.73;;
62153;SDS011;48140;45.486;9.226;2023-07-02T08:00:12;16.75;;;10.07;;
62153;SDS011;48140;45.486;9.226;2023-07-02T08:02:38;15.02;;;9.70;;
62153;SDS011;48140;45.486;9.226;2023-07-02T08:05:04;12.90;;;8.50;;
62153;SDS011;48140;45.486;9.226;2023-07-02T08:07:31;13.80;;;8.82;;
62153;SDS011;48140;45.486;9.226;2023-07-02T08:09:57;13.50;;;8.25;;
62153;SDS011;48140;45.486;9.226;2023-07-02T08:12:23;13.02;;;9.20;;
62153;SDS011;48140;45.486;9.226;2023-07-02T08:14:54;12.15;;;8.02;;
62153;SDS011;48140;45.486;9.226;2023-07-02T08:17:21;11.52;;;6.80;;
62153;SDS011;48140;45.486;9.226;2023-07-02T08:19:47;8.82;;;5.55;;
62153;SDS011;48140;45.486;9.226;2023-07-02T08:22:13;10.80;;;6.45;;
62153;SDS011;48140;45.486;9.226;2023-07-02T08:24:39;9.68;;;5.80;;
62153;SDS011;48140;45.486;9.226;2023-07-02T08:27:04;9.15;;;6.25;;
62153;SDS011;48140;45.486;9.226;2023-07-02T08:29:30;10.93;;;5.88;;
62153;SDS011;48140;45.486;9.226;2023-07-02T08:31:56;8.70;;;4.70;;
62153;SDS011;48140;45.486;9.226;2023-07-02T08:34:22;7.93;;;4.38;;
62153;SDS011;48140;45.486;9.226;2023-07-02T08:36:48;7.25;;;3.90;;
62153;SDS011;48140;45.486;9.226;2023-07-02T08:39:14;7.68;;;4.20;;
62153;SDS011;48140;45.486;9.226;2023-07-02T08:41:46;9.68;;;4.05;;
62153;SDS011;48140;45.486;9.226;2023-07-02T08:44:13;6.78;;;3.90;;
62153;SDS011;48140;45.486;9.226;2023-07-02T08:46:40;7.60;;;3.90;;
62153;SDS011;48140;45.486;9.226;2023-07-02T08:49:07;5.55;;;2.90;;
62153;SDS011;48140;45.486;9.226;2023-07-02T08:51:33;5.38;;;3.20;;
62153;SDS011;48140;45.486;9.226;2023-07-02T08:53:59;5.32;;;3.15;;
62153;SDS011;48140;45.486;9.226;2023-07-02T08:56:25;5.28;;;3.10;;
62153;SDS011;48140;45.486;9.226;2023-07-02T08:58:52;5.20;;;3.10;;
62153;SDS011;48140;45.486;9.226;2023-07-02T09:01:18;6.32;;;3.10;;
62153;SDS011;48140;45.486;9.226;2023-07-02T09:03:43;5.93;;;3.50;;
62153;SDS011;48140;45.486;9.226;2023-07-02T09:06:09;5.43;;;3.20;;
62153;SDS011;48140;45.486;9.226;2023-07-02T09:08:36;4.50;;;3.05;;
62153;SDS011;48140;45.486;9.226;2023-07-02T09:11:06;9.45;;;4.10;;
62153;SDS011;48140;45.486;9.226;2023-07-02T09:19:03;5.15;;;2.80;;
62153;SDS011;48140;45.486;9.226;2023-07-02T09:24:21;5.35;;;2.80;;
62153;SDS011;48140;45.486;9.226;2023-07-02T09:26:54;5.10;;;3.15;;
62153;SDS011;48140;45.486;9.226;2023-07-02T09:29:31;6.47;;;2.97;;
62153;SDS011;48140;45.486;9.226;2023-07-02T09:32:01;4.57;;;2.88;;
62153;SDS011;48140;45.486;9.226;2023-07-02T09:36:54;6.57;;;3.33;;
62153;SDS011;48140;45.486;9.226;2023-07-02T09:39:34;5.60;;;3.38;;
62153;SDS011;48140;45.486;9.226;2023-07-02T09:42:01;4.95;;;3.00;;
62153;SDS011;48140;45.486;9.226;2023-07-02T09:44:30;5.25;;;3.05;;
62153;SDS011;48140;45.486;9.226;2023-07-02T09:47:01;5.22;;;3.08;;
62153;SDS011;48140;45.486;9.226;2023-07-02T09:49:34;5.43;;;3.00;;
62153;SDS011;48140;45.486;9.226;2023-07-02T09:52:10;4.53;;;2.67;;
62153;SDS011;48140;45.486;9.226;2023-07-02T09:54:37;5.07;;;3.08;;
62153;SDS011;48140;45.486;9.226;2023-07-02T09:57:03;5.85;;;3.35;;
62153;SDS011;48140;45.486;9.226;2023-07-02T09:59:31;4.90;;;2.97;;
62153;SDS011;48140;45.486;9.226;2023-07-02T10:01:57;5.30;;;2.72;;
62153;SDS011;48140;45.486;9.226;2023-07-02T10:04:23;6.13;;;2.83;;
62153;SDS011;48140;45.486;9.226;2023-07-02T10:06:49;4.50;;;2.97;;
62153;SDS011;48140;45.486;9.226;2023-07-02T10:09:17;5.78;;;3.15;;
62153;SDS011;48140;45.486;9.226;2023-07-02T10:11:43;4.80;;;3.00;;
62153;SDS011;48140;45.486;9.226;2023-07-02T10:14:09;5.18;;;3.28;;
62153;SDS011;48140;45.486;9.226;2023-07-02T10:16:48;4.45;;;2.78;;
62153;SDS011;48140;45.486;9.226;2023-07-02T10:19:14;4.65;;;2.90;;
62153;SDS011;48140;45.486;9.226;2023-07-02T10:21:40;4.85;;;2.92;;
62153;SDS011;48140;45.486;9.226;2023-07-02T10:24:12;6.35;;;3.00;;
62153;SDS011;48140;45.486;9.226;2023-07-02T10:29:24;5.00;;;2.63;;
62153;SDS011;48140;45.486;9.226;2023-07-02T10:31:51;3.70;;;2.30;;
62153;SDS011;48140;45.486;9.226;2023-07-02T10:34:32;4.60;;;2.97;;
62153;SDS011;48140;45.486;9.226;2023-07-02T10:37:02;7.07;;;2.90;;
62153;SDS011;48140;45.486;9.226;2023-07-02T10:39:29;4.15;;;2.80;;
62153;SDS011;48140;45.486;9.226;2023-07-02T10:42:08;6.30;;;2.97;;
62153;SDS011;48140;45.486;9.226;2023-07-02T10:44:39;4.97;;;2.90;;
62153;SDS011;48140;45.486;9.226;2023-07-02T10:47:16;5.28;;;2.70;;
62153;SDS011;48140;45.486;9.226;2023-07-02T10:49:42;4.95;;;2.88;;
62153;SDS011;48140;45.486;9.226;2023-07-02T10:52:07;4.68;;;3.05;;
62153;SDS011;48140;45.486;9.226;2023-07-02T10:57:07;4.55;;;3.00;;
62153;SDS011;48140;45.486;9.226;2023-07-02T10:59:33;5.03;;;3.53;;
62153;SDS011;48140;45.486;9.226;2023-07-02T11:01:59;4.57;;;2.70;;
62153;SDS011;48140;45.486;9.226;2023-07-02T11:04:29;4.85;;;3.20;;
62153;SDS011;48140;45.486;9.226;2023-07-02T11:06:58;6.18;;;3.58;;
62153;SDS011;48140;45.486;9.226;2023-07-02T11:09:24;4.10;;;2.92;;
62153;SDS011;48140;45.486;9.226;2023-07-02T11:11:54;4.63;;;3.08;;
62153;SDS011;48140;45.486;9.226;2023-07-02T11:14:28;5.13;;;3.35;;
62153;SDS011;48140;45.486;9.226;2023-07-02T11:17:05;4.72;;;2.70;;
62153;SDS011;48140;45.486;9.226;2023-07-02T11:19:31;4.47;;;3.03;;
62153;SDS011;48140;45.486;9.226;2023-07-02T11:21:58;5.03;;;3.05;;
62153;SDS011;48140;45.486;9.226;2023-07-02T11:24:31;4.95;;;3.08;;
62153;SDS011;48140;45.486;9.226;2023-07-02T11:26:58;5.07;;;2.75;;
62153;SDS011;48140;45.486;9.226;2023-07-02T11:29:25;5.75;;;2.80;;
62153;SDS011;48140;45.486;9.226;2023-07-02T11:31:51;9.80;;;4.45;;
62153;SDS011;48140;45.486;9.226;2023-07-02T11:34:20;5.30;;;3.00;;
62153;SDS011;48140;45.486;9.226;2023-07-02T11:36:47;6.38;;;3.20;;
62153;SDS011;48140;45.486;9.226;2023-07-02T11:39:13;4.40;;;2.80;;
62153;SDS011;48140;45.486;9.226;2023-07-02T11:41:41;5.78;;;3.20;;
62153;SDS011;48140;45.486;9.226;2023-07-02T11:44:08;5.95;;;3.00;;
62153;SDS011;48140;45.486;9.226;2023-07-02T11:46:34;4.30;;;2.70;;
62153;SDS011;48140;45.486;9.226;2023-07-02T11:49:00;5.78;;;2.90;;
62153;SDS011;48140;45.486;9.226;2023-07-02T11:51:27;5.18;;;2.88;;
62153;SDS011;48140;45.486;9.226;2023-07-02T11:53:53;5.82;;;3.17;;
62153;SDS011;48140;45.486;9.226;2023-07-02T11:56:18;5.05;;;3.10;;
62153;SDS011;48140;45.486;9.226;2023-07-02T11:58:46;5.25;;;3.17;;
62153;SDS011;48140;45.486;9.226;2023-07-02T12:01:12;4.60;;;2.92;;
62153;SDS011;48140;45.486;9.226;2023-07-02T12:03:37;4.20;;;2.90;;
62153;SDS011;48140;45.486;9.226;2023-07-02T12:06:03;6.15;;;3.25;;
62153;SDS011;48140;45.486;9.226;2023-07-02T12:08:30;4.60;;;2.90;;
62153;SDS011;48140;45.486;9.226;2023-07-02T12:10:55;4.40;;;2.80;;
62153;SDS011;48140;45.486;9.226;2023-07-02T12:13:21;4.53;;;2.97;;
62153;SDS011;48140;45.486;9.226;2023-07-02T12:15:47;7.10;;;3.28;;
62153;SDS011;48140;45.486;9.226;2023-07-02T12:18:16;7.32;;;3.33;;
62153;SDS011;48140;45.486;9.226;2023-07-02T12:20:44;4.70;;;2.78;;
62153;SDS011;48140;45.486;9.226;2023-07-02T12:23:10;5.18;;;3.03;;
62153;SDS011;48140;45.486;9.226;2023-07-02T12:25:36;4.38;;;2.92;;
62153;SDS011;48140;45.486;9.226;2023-07-02T12:28:03;4.13;;;2.60;;
62153;SDS011;48140;45.486;9.226;2023-07-02T12:30:29;4.43;;;2.90;;
62153;SDS011;48140;45.486;9.226;2023-07-02T12:32:55;5.00;;;2.60;;
62153;SDS011;48140;45.486;9.226;2023-07-02T12:35:21;3.90;;;2.67;;
62153;SDS011;48140;45.486;9.226;2023-07-02T12:37:47;5.03;;;3.00;;
62153;SDS011;48140;45.486;9.226;2023-07-02T12:40:14;4.70;;;2.78;;
62153;SDS011;48140;45.486;9.226;2023-07-02T12:42:41;5.93;;;2.75;;
62153;SDS011;48140;45.486;9.226;2023-07-02T12:45:08;3.75;;;2.50;;
62153;SDS011;48140;45.486;9.226;2023-07-02T12:47:34;4.18;;;2.75;;
62153;SDS011;48140;45.486;9.226;2023-07-02T12:50:00;5.18;;;2.95;;
62153;SDS011;48140;45.486;9.226;2023-07-02T12:52:26;4.40;;;2.90;;
62153;SDS011;48140;45.486;9.226;2023-07-02T12:54:54;6.15;;;3.05;;
62153;SDS011;48140;45.486;9.226;2023-07-02T12:57:20;4.43;;;2.63;;
62153;SDS011;48140;45.486;9.226;2023-07-02T12:59:46;4.50;;;2.60;;
62153;SDS011;48140;45.486;9.226;2023-07-02T13:02:11;4.60;;;2.95;;
62153;SDS011;48140;45.486;9.226;2023-07-02T13:04:37;5.05;;;2.72;;
62153;SDS011;48140;45.486;9.226;2023-07-02T13:07:03;3.83;;;2.60;;
62153;SDS011;48140;45.486;9.226;2023-07-02T13:09:29;5.68;;;2.50;;
62153;SDS011;48140;45.486;9.226;2023-07-02T13:11:54;4.18;;;2.53;;
62153;SDS011;48140;45.486;9.226;2023-07-02T13:14:20;4.20;;;2.67;;
62153;SDS011;48140;45.486;9.226;2023-07-02T13:16:45;4.43;;;3.15;;
62153;SDS011;48140;45.486;9.226;2023-07-02T13:19:11;3.05;;;1.98;;
62153;SDS011;48140;45.486;9.226;2023-07-02T13:21:37;3.35;;;2.17;;
62153;SDS011;48140;45.486;9.226;2023-07-02T13:24:03;3.72;;;2.50;;
62153;SDS011;48140;45.486;9.226;2023-07-02T13:26:29;4.22;;;2.70;;
62153;SDS011;48140;45.486;9.226;2023-07-02T13:28:54;4.60;;;2.72;;
62153;SDS011;48140;45.486;9.226;2023-07-02T13:31:20;4.97;;;2.50;;
62153;SDS011;48140;45.486;9.226;2023-07-02T13:33:45;3.80;;;2.50;;
62153;SDS011;48140;45.486;9.226;2023-07-02T13:36:14;3.60;;;2.40;;
62153;SDS011;48140;45.486;9.226;2023-07-02T13:38:40;4.30;;;2.63;;
62153;SDS011;48140;45.486;9.226;2023-07-02T13:41:05;4.78;;;2.67;;
62153;SDS011;48140;45.486;9.226;2023-07-02T13:43:31;4.95;;;2.72;;
62153;SDS011;48140;45.486;9.226;2023-07-02T13:45:56;4.60;;;2.80;;
62153;SDS011;48140;45.486;9.226;2023-07-02T13:48:22;6.47;;;3.30;;
62153;SDS011;48140;45.486;9.226;2023-07-02T13:50:48;4.55;;;3.08;;
62153;SDS011;48140;45.486;9.226;2023-07-02T13:53:13;5.57;;;2.83;;
62153;SDS011;48140;45.486;9.226;2023-07-02T13:55:39;6.40;;;3.08;;
62153;SDS011;48140;45.486;9.226;2023-07-02T13:58:05;4.30;;;2.72;;
62153;SDS011;48140;45.486;9.226;2023-07-02T14:00:30;4.28;;;2.75;;
62153;SDS011;48140;45.486;9.226;2023-07-02T14:02:56;4.10;;;2.67;;
62153;SDS011;48140;45.486;9.226;2023-07-02T14:05:22;4.57;;;2.63;;
62153;SDS011;48140;45.486;9.226;2023-07-02T14:07:47;4.90;;;2.90;;
62153;SDS011;48140;45.486;9.226;2023-07-02T14:10:13;5.47;;;2.72;;
62153;SDS011;48140;45.486;9.226;2023-07-02T14:12:40;4.03;;;2.60;;
62153;SDS011;48140;45.486;9.226;2023-07-02T14:15:06;4.85;;;2.58;;
62153;SDS011;48140;45.486;9.226;2023-07-02T14:17:32;4.03;;;2.55;;
62153;SDS011;48140;45.486;9.226;2023-07-02T14:19:58;3.97;;;2.45;;
62153;SDS011;48140;45.486;9.226;2023-07-02T14:22:23;4.13;;;2.42;;
62153;SDS011;48140;45.486;9.226;2023-07-02T14:24:49;4.13;;;2.65;;
62153;SDS011;48140;45.486;9.226;2023-07-02T14:27:15;4.15;;;2.38;;
62153;SDS011;48140;45.486;9.226;2023-07-02T14:29:40;4.45;;;2.60;;
62153;SDS011;48140;45.486;9.226;2023-07-02T14:32:06;4.13;;;2.45;;
62153;SDS011;48140;45.486;9.226;2023-07-02T14:34:32;3.97;;;2.50;;
62153;SDS011;48140;45.486;9.226;2023-07-02T14:36:58;5.57;;;2.67;;
62153;SDS011;48140;45.486;9.226;2023-07-02T14:39:24;3.85;;;2.40;;
62153;SDS011;48140;45.486;9.226;2023-07-02T14:41:50;5.28;;;2.53;;
62153;SDS011;48140;45.486;9.226;2023-07-02T14:44:19;3.70;;;2.42;;
62153;SDS011;48140;45.486;9.226;2023-07-02T14:46:44;3.85;;;2.53;;
62153;SDS011;48140;45.486;9.226;2023-07-02T14:49:10;4.15;;;2.70;;
62153;SDS011;48140;45.486;9.226;2023-07-02T14:51:40;4.15;;;2.60;;
62153;SDS011;48140;45.486;9.226;2023-07-02T14:54:08;3.92;;;2.65;;
62153;SDS011;48140;45.486;9.226;2023-07-02T14:56:34;3.70;;;2.20;;
62153;SDS011;48140;45.486;9.226;2023-07-02T14:59:03;4.25;;;2.60;;
62153;SDS011;48140;45.486;9.226;2023-07-02T15:01:29;3.95;;;2.40;;
62153;SDS011;48140;45.486;9.226;2023-07-02T15:03:55;5.05;;;2.50;;
62153;SDS011;48140;45.486;9.226;2023-07-02T15:06:21;4.20;;;2.60;;
62153;SDS011;48140;45.486;9.226;2023-07-02T15:08:47;4.13;;;2.60;;
62153;SDS011;48140;45.486;9.226;2023-07-02T15:11:13;3.65;;;2.45;;
62153;SDS011;48140;45.486;9.226;2023-07-02T15:13:39;4.90;;;2.30;;
62153;SDS011;48140;45.486;9.226;2023-07-02T15:16:06;3.67;;;2.50;;
62153;SDS011;48140;45.486;9.226;2023-07-02T15:18:32;4.13;;;2.75;;
62153;SDS011;48140;45.486;9.226;2023-07-02T15:20:59;3.90;;;2.50;;
62153;SDS011;48140;45.486;9.226;2023-07-02T15:23:24;4.00;;;2.40;;
62153;SDS011;48140;45.486;9.226;2023-07-02T15:28:18;4.28;;;2.40;;
62153;SDS011;48140;45.486;9.226;2023-07-02T15:30:45;4.25;;;2.22;;
62153;SDS011;48140;45.486;9.226;2023-07-02T15:33:37;8.75;;;2.80;;
62153;SDS011;48140;45.486;9.226;2023-07-02T15:36:04;4.45;;;2.65;;
62153;SDS011;48140;45.486;9.226;2023-07-02T15:38:31;3.60;;;2.20;;
62153;SDS011;48140;45.486;9.226;2023-07-02T15:41:12;4.13;;;2.42;;
62153;SDS011;48140;45.486;9.226;2023-07-02T15:43:40;4.82;;;2.60;;
62153;SDS011;48140;45.486;9.226;2023-07-02T15:46:07;5.85;;;2.47;;
62153;SDS011;48140;45.486;9.226;2023-07-02T15:48:33;5.22;;;2.78;;
62153;SDS011;48140;45.486;9.226;2023-07-02T15:50:59;4.28;;;2.78;;
62153;SDS011;48140;45.486;9.226;2023-07-02T15:53:27;4.40;;;2.70;;
62153;SDS011;48140;45.486;9.226;2023-07-02T15:55:56;4.70;;;2.97;;
62153;SDS011;48140;45.486;9.226;2023-07-02T15:58:23;6.25;;;2.70;;